sensor_id;sensor_type;location;lat;lon;timestamp;temperature;humidity
292;DHT22;23311;48.776;9.162;2022-10-31T00:00:47;11.10;95.50
292;DHT22;23311;48.776;9.162;2022-10-31T00:03:17;11.10;95.50
292;DHT22;23311;48.776;9.162;2022-10-31T00:05:47;11.00;95.50
292;DHT22;23311;48.776;9.162;2022-10-31T00:08:16;11.10;95.50
292;DHT22;23311;48.776;9.162;2022-10-31T00:10:45;11.10;95.50
292;DHT22;23311;48.776;9.162;2022-10-31T00:13:13;11.20;95.50
292;DHT22;23311;48.776;9.162;2022-10-31T00:15:42;11.20;95.50
292;DHT22;23311;48.776;9.162;2022-10-31T00:18:10;11.10;95.50
292;DHT22;23311;48.776;9.162;2022-10-31T00:20:40;11.10;95.50
292;DHT22;23311;48.776;9.162;2022-10-31T00:23:09;11.00;95.50
292;DHT22;23311;48.776;9.162;2022-10-31T00:25:39;11.00;95.50
292;DHT22;23311;48.776;9.162;2022-10-31T00:28:09;11.10;95.50
292;DHT22;23311;48.776;9.162;2022-10-31T00:30:38;11.00;95.50
292;DHT22;23311;48.776;9.162;2022-10-31T00:33:06;10.90;95.50
292;DHT22;23311;48.776;9.162;2022-10-31T00:35:34;10.90;95.50
292;DHT22;23311;48.776;9.162;2022-10-31T00:38:03;10.90;95.50
292;DHT22;23311;48.776;9.162;2022-10-31T00:40:33;10.90;95.50
292;DHT22;23311;48.776;9.162;2022-10-31T00:43:01;10.90;95.50
292;DHT22;23311;48.776;9.162;2022-10-31T00:45:30;10.90;95.50
292;DHT22;23311;48.776;9.162;2022-10-31T00:47:58;10.90;95.50
292;DHT22;23311;48.776;9.162;2022-10-31T00:50:27;10.90;95.50
292;DHT22;23311;48.776;9.162;2022-10-31T00:52:55;10.80;95.50
292;DHT22;23311;48.776;9.162;2022-10-31T00:55:25;10.80;95.50
292;DHT22;23311;48.776;9.162;2022-10-31T00:57:53;10.80;95.50
292;DHT22;23311;48.776;9.162;2022-10-31T01:00:21;10.80;95.50
292;DHT22;23311;48.776;9.162;2022-10-31T01:02:49;10.80;95.50
292;DHT22;23311;48.776;9.162;2022-10-31T01:05:17;10.80;95.50
292;DHT22;23311;48.776;9.162;2022-10-31T01:07:45;10.80;95.50
292;DHT22;23311;48.776;9.162;2022-10-31T01:10:14;10.80;95.50
292;DHT22;23311;48.776;9.162;2022-10-31T01:12:45;10.70;95.50
292;DHT22;23311;48.776;9.162;2022-10-31T01:15:14;10.80;95.50
292;DHT22;23311;48.776;9.162;2022-10-31T01:17:43;10.80;95.50
292;DHT22;23311;48.776;9.162;2022-10-31T01:20:13;10.70;95.50
292;DHT22;23311;48.776;9.162;2022-10-31T01:22:42;10.60;95.50
292;DHT22;23311;48.776;9.162;2022-10-31T01:25:10;10.60;95.50
292;DHT22;23311;48.776;9.162;2022-10-31T01:27:38;10.80;95.50
292;DHT22;23311;48.776;9.162;2022-10-31T01:30:08;10.80;95.50
292;DHT22;23311;48.776;9.162;2022-10-31T01:32:37;10.80;95.50
292;DHT22;23311;48.776;9.162;2022-10-31T01:35:05;10.80;95.50
292;DHT22;23311;48.776;9.162;2022-10-31T01:37:33;10.80;95.50
292;DHT22;23311;48.776;9.162;2022-10-31T01:40:01;10.80;95.50
292;DHT22;23311;48.776;9.162;2022-10-31T01:42:29;11.00;95.50
292;DHT22;23311;48.776;9.162;2022-10-31T01:44:59;11.00;95.50
292;DHT22;23311;48.776;9.162;2022-10-31T01:47:37;11.00;95.50
292;DHT22;23311;48.776;9.162;2022-10-31T01:50:14;11.00;95.50
292;DHT22;23311;48.776;9.162;2022-10-31T01:52:45;10.90;95.50
292;DHT22;23311;48.776;9.162;2022-10-31T01:55:19;10.90;95.50
292;DHT22;23311;48.776;9.162;2022-10-31T01:57:58;10.90;95.50
292;DHT22;23311;48.776;9.162;2022-10-31T02:00:28;10.90;95.50
292;DHT22;23311;48.776;9.162;2022-10-31T02:02:57;11.00;95.50
292;DHT22;23311;48.776;9.162;2022-10-31T02:05:29;11.10;95.50
292;DHT22;23311;48.776;9.162;2022-10-31T02:07:58;11.00;95.50
292;DHT22;23311;48.776;9.162;2022-10-31T02:10:29;10.90;95.50
292;DHT22;23311;48.776;9.162;2022-10-31T02:13:00;10.80;95.50
292;DHT22;23311;48.776;9.162;2022-10-31T02:15:30;10.80;95.50
292;DHT22;23311;48.776;9.162;2022-10-31T02:18:01;10.80;95.50
292;DHT22;23311;48.776;9.162;2022-10-31T02:20:32;10.80;95.50
292;DHT22;23311;48.776;9.162;2022-10-31T02:26:14;10.70;95.50
292;DHT22;23311;48.776;9.162;2022-10-31T02:29:08;10.70;95.50
292;DHT22;23311;48.776;9.162;2022-10-31T02:31:44;10.80;95.50
292;DHT22;23311;48.776;9.162;2022-10-31T02:34:18;10.70;95.50
292;DHT22;23311;48.776;9.162;2022-10-31T02:36:52;10.70;95.50
292;DHT22;23311;48.776;9.162;2022-10-31T02:39:24;10.70;95.50
292;DHT22;23311;48.776;9.162;2022-10-31T02:42:01;10.70;95.50
292;DHT22;23311;48.776;9.162;2022-10-31T02:44:36;10.70;95.50
292;DHT22;23311;48.776;9.162;2022-10-31T02:47:10;10.60;95.50
292;DHT22;23311;48.776;9.162;2022-10-31T02:49:43;10.50;95.50
292;DHT22;23311;48.776;9.162;2022-10-31T02:52:16;10.50;95.50
292;DHT22;23311;48.776;9.162;2022-10-31T02:54:46;10.50;95.50
292;DHT22;23311;48.776;9.162;2022-10-31T02:57:17;10.50;95.50
292;DHT22;23311;48.776;9.162;2022-10-31T02:59:50;10.50;95.50
292;DHT22;23311;48.776;9.162;2022-10-31T03:05:35;10.60;95.50
292;DHT22;23311;48.776;9.162;2022-10-31T03:08:11;10.60;95.50
292;DHT22;23311;48.776;9.162;2022-10-31T03:10:46;10.70;95.50
292;DHT22;23311;48.776;9.162;2022-10-31T03:13:22;10.60;95.50
292;DHT22;23311;48.776;9.162;2022-10-31T03:15:54;10.50;95.50
292;DHT22;23311;48.776;9.162;2022-10-31T03:18:29;10.40;95.50
292;DHT22;23311;48.776;9.162;2022-10-31T03:21:01;10.40;95.50
292;DHT22;23311;48.776;9.162;2022-10-31T03:23:32;10.40;95.50
292;DHT22;23311;48.776;9.162;2022-10-31T03:26:04;10.40;95.50
292;DHT22;23311;48.776;9.162;2022-10-31T03:28:36;10.30;95.50
292;DHT22;23311;48.776;9.162;2022-10-31T03:31:05;10.40;95.50
292;DHT22;23311;48.776;9.162;2022-10-31T03:33:37;10.50;95.50
292;DHT22;23311;48.776;9.162;2022-10-31T03:36:08;10.80;95.50
292;DHT22;23311;48.776;9.162;2022-10-31T03:38:37;11.00;95.50
292;DHT22;23311;48.776;9.162;2022-10-31T03:41:12;10.90;95.50
292;DHT22;23311;48.776;9.162;2022-10-31T03:43:44;10.80;95.50
292;DHT22;23311;48.776;9.162;2022-10-31T03:46:14;10.60;95.50
292;DHT22;23311;48.776;9.162;2022-10-31T03:48:43;10.50;95.50
292;DHT22;23311;48.776;9.162;2022-10-31T03:51:15;10.40;95.50
292;DHT22;23311;48.776;9.162;2022-10-31T03:53:52;10.40;95.50
292;DHT22;23311;48.776;9.162;2022-10-31T03:56:28;10.40;95.50
292;DHT22;23311;48.776;9.162;2022-10-31T03:59:01;10.40;95.50
292;DHT22;23311;48.776;9.162;2022-10-31T04:01:32;10.40;95.50
292;DHT22;23311;48.776;9.162;2022-10-31T04:04:03;10.40;95.50
292;DHT22;23311;48.776;9.162;2022-10-31T04:06:34;10.40;95.50
292;DHT22;23311;48.776;9.162;2022-10-31T04:09:05;10.40;95.50
292;DHT22;23311;48.776;9.162;2022-10-31T04:11:36;10.40;95.50
292;DHT22;23311;48.776;9.162;2022-10-31T04:14:06;10.40;95.50
292;DHT22;23311;48.776;9.162;2022-10-31T04:16:34;10.60;95.50
292;DHT22;23311;48.776;9.162;2022-10-31T04:19:04;10.50;95.50
292;DHT22;23311;48.776;9.162;2022-10-31T04:21:32;10.40;95.50
292;DHT22;23311;48.776;9.162;2022-10-31T04:24:00;10.40;95.50
292;DHT22;23311;48.776;9.162;2022-10-31T04:26:28;10.40;95.50
292;DHT22;23311;48.776;9.162;2022-10-31T04:28:56;10.30;95.50
292;DHT22;23311;48.776;9.162;2022-10-31T04:31:24;10.20;95.50
292;DHT22;23311;48.776;9.162;2022-10-31T04:33:52;10.10;95.50
292;DHT22;23311;48.776;9.162;2022-10-31T04:36:21;10.20;95.50
292;DHT22;23311;48.776;9.162;2022-10-31T04:38:49;10.20;95.50
292;DHT22;23311;48.776;9.162;2022-10-31T04:41:17;10.20;95.50
292;DHT22;23311;48.776;9.162;2022-10-31T04:43:45;10.20;95.50
292;DHT22;23311;48.776;9.162;2022-10-31T04:46:13;10.10;95.50
292;DHT22;23311;48.776;9.162;2022-10-31T04:48:41;10.10;95.50
292;DHT22;23311;48.776;9.162;2022-10-31T04:51:09;10.10;95.50
292;DHT22;23311;48.776;9.162;2022-10-31T04:53:39;10.00;95.50
292;DHT22;23311;48.776;9.162;2022-10-31T04:56:07;9.90;95.50
292;DHT22;23311;48.776;9.162;2022-10-31T04:58:35;10.00;95.50
292;DHT22;23311;48.776;9.162;2022-10-31T05:01:03;9.90;95.50
292;DHT22;23311;48.776;9.162;2022-10-31T05:03:31;9.80;95.50
292;DHT22;23311;48.776;9.162;2022-10-31T05:05:59;9.80;95.50
292;DHT22;23311;48.776;9.162;2022-10-31T05:08:27;9.80;95.50
292;DHT22;23311;48.776;9.162;2022-10-31T05:10:59;9.80;95.50
292;DHT22;23311;48.776;9.162;2022-10-31T05:13:30;9.80;95.50
292;DHT22;23311;48.776;9.162;2022-10-31T05:15:58;9.70;95.50
292;DHT22;23311;48.776;9.162;2022-10-31T05:18:26;9.70;95.50
292;DHT22;23311;48.776;9.162;2022-10-31T05:20:54;9.70;95.50
292;DHT22;23311;48.776;9.162;2022-10-31T05:23:22;9.70;95.50
292;DHT22;23311;48.776;9.162;2022-10-31T05:25:50;9.90;95.50
292;DHT22;23311;48.776;9.162;2022-10-31T05:28:20;10.20;95.50
292;DHT22;23311;48.776;9.162;2022-10-31T05:30:48;10.10;95.50
292;DHT22;23311;48.776;9.162;2022-10-31T05:33:16;10.30;95.50
292;DHT22;23311;48.776;9.162;2022-10-31T05:35:44;10.20;95.50
292;DHT22;23311;48.776;9.162;2022-10-31T05:38:12;10.10;95.50
292;DHT22;23311;48.776;9.162;2022-10-31T05:40:40;10.00;95.50
292;DHT22;23311;48.776;9.162;2022-10-31T05:43:08;9.90;95.50
292;DHT22;23311;48.776;9.162;2022-10-31T05:45:38;9.90;95.50
292;DHT22;23311;48.776;9.162;2022-10-31T05:48:06;9.90;95.50
292;DHT22;23311;48.776;9.162;2022-10-31T05:50:34;10.10;95.50
292;DHT22;23311;48.776;9.162;2022-10-31T05:53:04;9.90;95.50
292;DHT22;23311;48.776;9.162;2022-10-31T05:55:32;9.80;95.50
292;DHT22;23311;48.776;9.162;2022-10-31T05:58:00;9.80;95.50
292;DHT22;23311;48.776;9.162;2022-10-31T06:00:29;9.70;95.50
292;DHT22;23311;48.776;9.162;2022-10-31T06:02:59;9.70;95.50
292;DHT22;23311;48.776;9.162;2022-10-31T06:05:28;9.70;95.50
292;DHT22;23311;48.776;9.162;2022-10-31T06:07:57;9.80;95.50
292;DHT22;23311;48.776;9.162;2022-10-31T06:10:26;9.80;95.50
292;DHT22;23311;48.776;9.162;2022-10-31T06:12:54;9.80;95.50
292;DHT22;23311;48.776;9.162;2022-10-31T06:15:22;9.80;95.50
292;DHT22;23311;48.776;9.162;2022-10-31T06:18:00;9.90;95.50
292;DHT22;23311;48.776;9.162;2022-10-31T06:20:29;9.90;95.50
292;DHT22;23311;48.776;9.162;2022-10-31T06:22:57;9.80;95.50
292;DHT22;23311;48.776;9.162;2022-10-31T06:25:26;9.80;95.50
292;DHT22;23311;48.776;9.162;2022-10-31T06:27:54;9.80;95.50
292;DHT22;23311;48.776;9.162;2022-10-31T06:30:23;10.00;95.50
292;DHT22;23311;48.776;9.162;2022-10-31T06:32:51;9.90;95.50
292;DHT22;23311;48.776;9.162;2022-10-31T06:35:21;9.90;95.50
292;DHT22;23311;48.776;9.162;2022-10-31T06:37:52;9.90;95.50
292;DHT22;23311;48.776;9.162;2022-10-31T06:40:20;9.90;95.50
292;DHT22;23311;48.776;9.162;2022-10-31T06:42:56;9.90;95.50
292;DHT22;23311;48.776;9.162;2022-10-31T06:45:24;9.90;95.50
292;DHT22;23311;48.776;9.162;2022-10-31T06:47:52;10.00;95.50
292;DHT22;23311;48.776;9.162;2022-10-31T06:50:42;10.00;95.50
292;DHT22;23311;48.776;9.162;2022-10-31T06:53:10;10.00;95.50
292;DHT22;23311;48.776;9.162;2022-10-31T06:55:38;10.10;95.50
292;DHT22;23311;48.776;9.162;2022-10-31T06:58:08;10.20;95.50
292;DHT22;23311;48.776;9.162;2022-10-31T07:00:37;10.10;95.50
292;DHT22;23311;48.776;9.162;2022-10-31T07:03:06;10.10;95.50
292;DHT22;23311;48.776;9.162;2022-10-31T07:05:35;10.10;95.50
292;DHT22;23311;48.776;9.162;2022-10-31T07:08:06;10.20;95.50
292;DHT22;23311;48.776;9.162;2022-10-31T07:10:36;10.30;95.50
292;DHT22;23311;48.776;9.162;2022-10-31T07:13:10;10.40;95.50
292;DHT22;23311;48.776;9.162;2022-10-31T07:15:41;10.40;95.50
292;DHT22;23311;48.776;9.162;2022-10-31T07:18:11;10.50;95.50
292;DHT22;23311;48.776;9.162;2022-10-31T07:20:39;10.70;95.50
292;DHT22;23311;48.776;9.162;2022-10-31T07:23:09;10.90;95.50
292;DHT22;23311;48.776;9.162;2022-10-31T07:25:37;10.90;95.50
292;DHT22;23311;48.776;9.162;2022-10-31T07:28:06;10.90;95.50
292;DHT22;23311;48.776;9.162;2022-10-31T07:30:34;11.00;95.50
292;DHT22;23311;48.776;9.162;2022-10-31T07:33:02;11.10;95.50
292;DHT22;23311;48.776;9.162;2022-10-31T07:35:31;11.10;95.50
292;DHT22;23311;48.776;9.162;2022-10-31T07:38:08;11.20;95.50
292;DHT22;23311;48.776;9.162;2022-10-31T07:40:37;11.20;95.50
292;DHT22;23311;48.776;9.162;2022-10-31T07:43:05;11.30;95.50
292;DHT22;23311;48.776;9.162;2022-10-31T07:45:39;11.50;95.50
292;DHT22;23311;48.776;9.162;2022-10-31T07:48:07;11.60;95.50
292;DHT22;23311;48.776;9.162;2022-10-31T07:50:35;11.70;95.50
292;DHT22;23311;48.776;9.162;2022-10-31T07:53:05;11.80;95.50
292;DHT22;23311;48.776;9.162;2022-10-31T07:55:35;11.90;95.50
292;DHT22;23311;48.776;9.162;2022-10-31T07:58:05;12.00;95.50
292;DHT22;23311;48.776;9.162;2022-10-31T08:00:34;12.10;95.50
292;DHT22;23311;48.776;9.162;2022-10-31T08:03:04;12.30;95.50
292;DHT22;23311;48.776;9.162;2022-10-31T08:05:33;12.40;95.50
292;DHT22;23311;48.776;9.162;2022-10-31T08:08:01;12.50;95.50
292;DHT22;23311;48.776;9.162;2022-10-31T08:10:30;12.50;95.50
292;DHT22;23311;48.776;9.162;2022-10-31T08:13:01;12.70;95.50
292;DHT22;23311;48.776;9.162;2022-10-31T08:15:29;12.70;95.50
292;DHT22;23311;48.776;9.162;2022-10-31T08:17:57;12.70;95.50
292;DHT22;23311;48.776;9.162;2022-10-31T08:20:26;12.80;95.50
292;DHT22;23311;48.776;9.162;2022-10-31T08:22:55;12.90;95.50
292;DHT22;23311;48.776;9.162;2022-10-31T08:25:24;13.10;95.50
292;DHT22;23311;48.776;9.162;2022-10-31T08:27:55;13.20;95.50
292;DHT22;23311;48.776;9.162;2022-10-31T08:30:27;13.30;95.50
292;DHT22;23311;48.776;9.162;2022-10-31T08:33:00;13.40;95.50
292;DHT22;23311;48.776;9.162;2022-10-31T08:35:28;13.50;95.50
292;DHT22;23311;48.776;9.162;2022-10-31T08:37:56;13.60;95.50
292;DHT22;23311;48.776;9.162;2022-10-31T08:40:26;13.60;95.50
292;DHT22;23311;48.776;9.162;2022-10-31T08:43:02;13.70;95.50
292;DHT22;23311;48.776;9.162;2022-10-31T08:45:34;13.80;95.50
292;DHT22;23311;48.776;9.162;2022-10-31T08:48:03;13.90;95.50
292;DHT22;23311;48.776;9.162;2022-10-31T08:50:35;14.00;95.50
292;DHT22;23311;48.776;9.162;2022-10-31T08:53:04;14.10;95.50
292;DHT22;23311;48.776;9.162;2022-10-31T08:55:33;14.30;95.50
292;DHT22;23311;48.776;9.162;2022-10-31T08:58:03;14.30;95.50
292;DHT22;23311;48.776;9.162;2022-10-31T09:00:33;14.30;95.50
292;DHT22;23311;48.776;9.162;2022-10-31T09:03:04;14.40;95.50
292;DHT22;23311;48.776;9.162;2022-10-31T09:05:32;14.50;95.50
292;DHT22;23311;48.776;9.162;2022-10-31T09:08:03;14.60;95.50
292;DHT22;23311;48.776;9.162;2022-10-31T09:10:33;14.70;95.50
292;DHT22;23311;48.776;9.162;2022-10-31T09:13:03;14.70;95.50
292;DHT22;23311;48.776;9.162;2022-10-31T09:15:35;15.00;95.50
292;DHT22;23311;48.776;9.162;2022-10-31T09:18:05;15.10;95.50
292;DHT22;23311;48.776;9.162;2022-10-31T09:20:35;15.30;95.50
292;DHT22;23311;48.776;9.162;2022-10-31T09:23:06;15.30;95.50
292;DHT22;23311;48.776;9.162;2022-10-31T09:25:35;15.20;95.50
292;DHT22;23311;48.776;9.162;2022-10-31T09:28:05;15.40;95.50
292;DHT22;23311;48.776;9.162;2022-10-31T09:30:35;15.50;95.50
292;DHT22;23311;48.776;9.162;2022-10-31T09:33:04;15.50;95.50
292;DHT22;23311;48.776;9.162;2022-10-31T09:35:33;15.50;95.50
292;DHT22;23311;48.776;9.162;2022-10-31T09:38:03;15.60;95.50
292;DHT22;23311;48.776;9.162;2022-10-31T09:40:34;15.70;95.50
292;DHT22;23311;48.776;9.162;2022-10-31T09:43:10;15.60;95.50
292;DHT22;23311;48.776;9.162;2022-10-31T09:45:51;15.50;95.50
292;DHT22;23311;48.776;9.162;2022-10-31T09:48:49;15.40;95.50
292;DHT22;23311;48.776;9.162;2022-10-31T09:51:25;15.50;95.50
292;DHT22;23311;48.776;9.162;2022-10-31T09:54:00;15.60;95.50
292;DHT22;23311;48.776;9.162;2022-10-31T09:56:31;15.80;95.50
292;DHT22;23311;48.776;9.162;2022-10-31T09:59:02;15.80;95.50
292;DHT22;23311;48.776;9.162;2022-10-31T10:01:37;15.90;95.50
292;DHT22;23311;48.776;9.162;2022-10-31T10:06:59;16.10;95.50
292;DHT22;23311;48.776;9.162;2022-10-31T10:09:28;16.30;95.50
292;DHT22;23311;48.776;9.162;2022-10-31T10:12:05;16.30;95.50
292;DHT22;23311;48.776;9.162;2022-10-31T10:14:46;16.60;95.50
292;DHT22;23311;48.776;9.162;2022-10-31T10:17:24;16.90;95.50
292;DHT22;23311;48.776;9.162;2022-10-31T10:20:04;17.10;95.50
292;DHT22;23311;48.776;9.162;2022-10-31T10:22:40;17.10;95.50
292;DHT22;23311;48.776;9.162;2022-10-31T10:25:16;17.20;95.50
292;DHT22;23311;48.776;9.162;2022-10-31T10:27:57;17.20;95.50
292;DHT22;23311;48.776;9.162;2022-10-31T10:30:32;17.40;95.50
292;DHT22;23311;48.776;9.162;2022-10-31T10:33:08;17.40;95.50
292;DHT22;23311;48.776;9.162;2022-10-31T10:35:40;17.50;95.50
292;DHT22;23311;48.776;9.162;2022-10-31T10:38:15;17.50;95.50
292;DHT22;23311;48.776;9.162;2022-10-31T10:40:44;17.70;95.50
292;DHT22;23311;48.776;9.162;2022-10-31T10:43:20;17.90;95.50
292;DHT22;23311;48.776;9.162;2022-10-31T10:49:16;17.90;95.50
292;DHT22;23311;48.776;9.162;2022-10-31T10:51:46;17.90;95.50
292;DHT22;23311;48.776;9.162;2022-10-31T10:54:46;17.90;95.50
292;DHT22;23311;48.776;9.162;2022-10-31T10:57:27;17.90;95.50
292;DHT22;23311;48.776;9.162;2022-10-31T10:59:59;18.00;95.50
292;DHT22;23311;48.776;9.162;2022-10-31T11:02:32;17.90;95.50
292;DHT22;23311;48.776;9.162;2022-10-31T11:05:03;17.80;95.50
292;DHT22;23311;48.776;9.162;2022-10-31T11:07:40;17.80;95.50
292;DHT22;23311;48.776;9.162;2022-10-31T11:10:12;18.00;95.50
292;DHT22;23311;48.776;9.162;2022-10-31T11:12:43;17.90;95.50
292;DHT22;23311;48.776;9.162;2022-10-31T11:15:23;18.00;95.50
292;DHT22;23311;48.776;9.162;2022-10-31T11:17:54;18.10;95.50
292;DHT22;23311;48.776;9.162;2022-10-31T11:20:28;18.10;95.50
292;DHT22;23311;48.776;9.162;2022-10-31T11:23:15;18.10;95.50
292;DHT22;23311;48.776;9.162;2022-10-31T11:25:56;18.50;94.70
292;DHT22;23311;48.776;9.162;2022-10-31T11:28:25;18.70;94.10
292;DHT22;23311;48.776;9.162;2022-10-31T11:30:55;19.00;93.20
292;DHT22;23311;48.776;9.162;2022-10-31T11:33:27;19.00;92.70
292;DHT22;23311;48.776;9.162;2022-10-31T11:35:57;18.90;92.50
292;DHT22;23311;48.776;9.162;2022-10-31T11:38:31;19.00;93.10
292;DHT22;23311;48.776;9.162;2022-10-31T11:41:10;19.00;93.00
292;DHT22;23311;48.776;9.162;2022-10-31T11:43:46;19.20;92.70
292;DHT22;23311;48.776;9.162;2022-10-31T11:46:20;19.30;92.50
292;DHT22;23311;48.776;9.162;2022-10-31T11:48:50;19.20;92.70
292;DHT22;23311;48.776;9.162;2022-10-31T11:51:25;19.30;92.50
292;DHT22;23311;48.776;9.162;2022-10-31T11:53:57;19.50;92.10
292;DHT22;23311;48.776;9.162;2022-10-31T11:56:38;19.90;91.10
292;DHT22;23311;48.776;9.162;2022-10-31T11:59:17;19.90;91.10
292;DHT22;23311;48.776;9.162;2022-10-31T12:01:47;19.90;91.20
292;DHT22;23311;48.776;9.162;2022-10-31T12:04:16;19.80;91.40
292;DHT22;23311;48.776;9.162;2022-10-31T12:06:46;19.90;91.40
292;DHT22;23311;48.776;9.162;2022-10-31T12:09:22;19.90;91.40
292;DHT22;23311;48.776;9.162;2022-10-31T12:12:04;19.90;91.20
292;DHT22;23311;48.776;9.162;2022-10-31T12:14:38;19.90;91.40
292;DHT22;23311;48.776;9.162;2022-10-31T12:17:12;19.80;92.10
292;DHT22;23311;48.776;9.162;2022-10-31T12:19:47;20.20;91.20
292;DHT22;23311;48.776;9.162;2022-10-31T12:22:26;20.10;91.10
292;DHT22;23311;48.776;9.162;2022-10-31T12:25:18;20.50;90.50
292;DHT22;23311;48.776;9.162;2022-10-31T12:27:59;20.90;89.70
292;DHT22;23311;48.776;9.162;2022-10-31T12:30:36;21.20;89.00
292;DHT22;23311;48.776;9.162;2022-10-31T12:33:19;21.50;87.90
292;DHT22;23311;48.776;9.162;2022-10-31T12:36:01;21.80;87.30
292;DHT22;23311;48.776;9.162;2022-10-31T12:38:54;21.30;88.00
292;DHT22;23311;48.776;9.162;2022-10-31T12:41:36;20.40;90.10
292;DHT22;23311;48.776;9.162;2022-10-31T12:44:22;19.90;91.80
292;DHT22;23311;48.776;9.162;2022-10-31T12:47:07;19.70;92.50
292;DHT22;23311;48.776;9.162;2022-10-31T12:49:51;19.60;93.10
292;DHT22;23311;48.776;9.162;2022-10-31T12:52:36;19.50;93.90
292;DHT22;23311;48.776;9.162;2022-10-31T12:55:24;19.20;94.50
292;DHT22;23311;48.776;9.162;2022-10-31T12:57:58;19.10;95.00
292;DHT22;23311;48.776;9.162;2022-10-31T13:00:31;19.00;95.50
292;DHT22;23311;48.776;9.162;2022-10-31T13:03:12;19.00;95.20
292;DHT22;23311;48.776;9.162;2022-10-31T13:05:43;19.00;95.50
292;DHT22;23311;48.776;9.162;2022-10-31T13:08:15;18.90;95.50
292;DHT22;23311;48.776;9.162;2022-10-31T13:10:48;18.90;95.50
292;DHT22;23311;48.776;9.162;2022-10-31T13:13:26;18.90;95.50
292;DHT22;23311;48.776;9.162;2022-10-31T13:15:57;18.90;95.50
292;DHT22;23311;48.776;9.162;2022-10-31T13:18:29;18.90;95.50
292;DHT22;23311;48.776;9.162;2022-10-31T13:20:59;18.90;95.50
292;DHT22;23311;48.776;9.162;2022-10-31T13:23:32;18.90;95.50
292;DHT22;23311;48.776;9.162;2022-10-31T13:26:23;18.80;95.50
292;DHT22;23311;48.776;9.162;2022-10-31T13:28:57;18.80;95.50
292;DHT22;23311;48.776;9.162;2022-10-31T13:31:28;18.80;95.50
292;DHT22;23311;48.776;9.162;2022-10-31T13:33:58;18.80;95.50
292;DHT22;23311;48.776;9.162;2022-10-31T13:36:32;18.90;95.50
292;DHT22;23311;48.776;9.162;2022-10-31T13:39:13;18.90;95.50
292;DHT22;23311;48.776;9.162;2022-10-31T13:41:51;19.20;95.10
292;DHT22;23311;48.776;9.162;2022-10-31T13:44:23;19.40;94.50
292;DHT22;23311;48.776;9.162;2022-10-31T13:46:53;19.70;93.50
292;DHT22;23311;48.776;9.162;2022-10-31T13:49:36;19.90;93.30
292;DHT22;23311;48.776;9.162;2022-10-31T13:52:15;20.10;92.60
292;DHT22;23311;48.776;9.162;2022-10-31T13:54:45;20.00;92.60
292;DHT22;23311;48.776;9.162;2022-10-31T13:57:18;19.80;93.20
292;DHT22;23311;48.776;9.162;2022-10-31T13:59:52;19.70;93.40
292;DHT22;23311;48.776;9.162;2022-10-31T14:02:25;19.60;94.00
292;DHT22;23311;48.776;9.162;2022-10-31T14:04:58;19.40;94.40
292;DHT22;23311;48.776;9.162;2022-10-31T14:07:27;19.30;94.70
292;DHT22;23311;48.776;9.162;2022-10-31T14:09:58;19.20;95.00
292;DHT22;23311;48.776;9.162;2022-10-31T14:12:31;19.20;95.00
292;DHT22;23311;48.776;9.162;2022-10-31T14:15:04;19.10;95.10
292;DHT22;23311;48.776;9.162;2022-10-31T14:17:45;19.00;95.40
292;DHT22;23311;48.776;9.162;2022-10-31T14:20:39;18.90;95.50
292;DHT22;23311;48.776;9.162;2022-10-31T14:26:07;18.70;95.50
292;DHT22;23311;48.776;9.162;2022-10-31T14:28:44;18.70;95.50
292;DHT22;23311;48.776;9.162;2022-10-31T14:31:31;18.60;95.50
292;DHT22;23311;48.776;9.162;2022-10-31T14:34:14;18.50;95.50
292;DHT22;23311;48.776;9.162;2022-10-31T14:36:54;18.50;95.50
292;DHT22;23311;48.776;9.162;2022-10-31T14:39:27;18.50;95.50
292;DHT22;23311;48.776;9.162;2022-10-31T14:42:10;18.40;95.50
292;DHT22;23311;48.776;9.162;2022-10-31T14:45:10;18.30;95.50
292;DHT22;23311;48.776;9.162;2022-10-31T14:47:46;18.20;95.50
292;DHT22;23311;48.776;9.162;2022-10-31T14:50:24;18.10;95.50
292;DHT22;23311;48.776;9.162;2022-10-31T14:53:01;18.00;95.50
292;DHT22;23311;48.776;9.162;2022-10-31T14:55:31;17.80;95.50
292;DHT22;23311;48.776;9.162;2022-10-31T14:58:01;17.70;95.50
292;DHT22;23311;48.776;9.162;2022-10-31T15:00:32;17.70;95.50
292;DHT22;23311;48.776;9.162;2022-10-31T15:03:07;17.60;95.50
292;DHT22;23311;48.776;9.162;2022-10-31T15:05:42;17.50;95.50
292;DHT22;23311;48.776;9.162;2022-10-31T15:08:26;17.50;95.50
292;DHT22;23311;48.776;9.162;2022-10-31T15:10:55;17.50;95.50
292;DHT22;23311;48.776;9.162;2022-10-31T15:13:23;17.50;95.50
292;DHT22;23311;48.776;9.162;2022-10-31T15:15:55;17.50;95.50
292;DHT22;23311;48.776;9.162;2022-10-31T15:18:24;17.40;95.50
292;DHT22;23311;48.776;9.162;2022-10-31T15:20:54;17.40;95.50
292;DHT22;23311;48.776;9.162;2022-10-31T15:23:25;17.20;95.50
292;DHT22;23311;48.776;9.162;2022-10-31T15:25:59;17.10;95.50
292;DHT22;23311;48.776;9.162;2022-10-31T15:28:27;17.00;95.50
292;DHT22;23311;48.776;9.162;2022-10-31T15:30:59;16.80;95.50
292;DHT22;23311;48.776;9.162;2022-10-31T15:33:29;16.60;95.50
292;DHT22;23311;48.776;9.162;2022-10-31T15:36:04;16.40;95.50
292;DHT22;23311;48.776;9.162;2022-10-31T15:38:32;16.30;95.50
292;DHT22;23311;48.776;9.162;2022-10-31T15:41:03;16.10;95.50
292;DHT22;23311;48.776;9.162;2022-10-31T15:43:35;16.00;95.50
292;DHT22;23311;48.776;9.162;2022-10-31T15:46:08;15.80;95.50
292;DHT22;23311;48.776;9.162;2022-10-31T15:48:37;15.70;95.50
292;DHT22;23311;48.776;9.162;2022-10-31T15:51:07;15.60;95.50
292;DHT22;23311;48.776;9.162;2022-10-31T15:53:37;15.50;95.50
292;DHT22;23311;48.776;9.162;2022-10-31T15:56:18;15.40;95.50
292;DHT22;23311;48.776;9.162;2022-10-31T15:58:51;15.40;95.50
292;DHT22;23311;48.776;9.162;2022-10-31T16:01:22;15.30;95.50
292;DHT22;23311;48.776;9.162;2022-10-31T16:04:05;15.20;95.50
292;DHT22;23311;48.776;9.162;2022-10-31T16:06:58;15.10;95.50
292;DHT22;23311;48.776;9.162;2022-10-31T16:09:26;15.10;95.50
292;DHT22;23311;48.776;9.162;2022-10-31T16:11:56;15.20;95.50
292;DHT22;23311;48.776;9.162;2022-10-31T16:14:27;15.30;95.50
292;DHT22;23311;48.776;9.162;2022-10-31T16:16:58;15.50;95.50
292;DHT22;23311;48.776;9.162;2022-10-31T16:19:29;15.40;95.50
292;DHT22;23311;48.776;9.162;2022-10-31T16:22:04;15.20;95.50
292;DHT22;23311;48.776;9.162;2022-10-31T16:24:37;15.00;95.50
292;DHT22;23311;48.776;9.162;2022-10-31T16:27:15;14.90;95.50
292;DHT22;23311;48.776;9.162;2022-10-31T16:29:46;14.90;95.50
292;DHT22;23311;48.776;9.162;2022-10-31T16:32:26;14.70;95.50
292;DHT22;23311;48.776;9.162;2022-10-31T16:35:17;14.50;95.50
292;DHT22;23311;48.776;9.162;2022-10-31T16:37:45;14.40;95.50
292;DHT22;23311;48.776;9.162;2022-10-31T16:40:14;14.50;95.50
292;DHT22;23311;48.776;9.162;2022-10-31T16:42:43;14.70;95.50
292;DHT22;23311;48.776;9.162;2022-10-31T16:45:16;14.70;95.50
292;DHT22;23311;48.776;9.162;2022-10-31T16:47:47;14.50;95.50
292;DHT22;23311;48.776;9.162;2022-10-31T16:50:18;14.20;95.50